sensor_id;sensor_type;location;lat;lon;timestamp;pressure;altitude;pressure_sealevel;temperature;humidity
35291;BME280;21411;50.024;19.220;2022-08-21T00:00:09;98446.52;;;18.86;100.00
35291;BME280;21411;50.024;19.220;2022-08-21T00:03:00;98448.81;;;18.87;100.00
35291;BME280;21411;50.024;19.220;2022-08-21T00:05:29;98445.61;;;18.89;100.00
35291;BME280;21411;50.024;19.220;2022-08-21T00:07:56;98441.73;;;18.90;100.00
35291;BME280;21411;50.024;19.220;2022-08-21T00:10:24;98436.02;;;18.89;100.00
35291;BME280;21411;50.024;19.220;2022-08-21T00:12:51;98435.27;;;18.91;100.00
35291;BME280;21411;50.024;19.220;2022-08-21T00:15:21;98428.77;;;18.91;100.00
35291;BME280;21411;50.024;19.220;2022-08-21T00:17:48;98431.27;;;18.91;100.00
35291;BME280;21411;50.024;19.220;2022-08-21T00:20:16;98428.60;;;18.91;100.00
35291;BME280;21411;50.024;19.220;2022-08-21T00:22:44;98428.99;;;18.92;100.00
35291;BME280;21411;50.024;19.220;2022-08-21T00:25:11;98423.40;;;18.92;100.00
35291;BME280;21411;50.024;19.220;2022-08-21T00:27:38;98418.67;;;18.93;100.00
35291;BME280;21411;50.024;19.220;2022-08-21T00:30:06;98413.58;;;18.93;100.00
35291;BME280;21411;50.024;19.220;2022-08-21T00:32:33;98414.35;;;18.93;100.00
35291;BME280;21411;50.024;19.220;2022-08-21T00:35:00;98411.14;;;18.93;100.00
35291;BME280;21411;50.024;19.220;2022-08-21T00:37:27;98412.77;;;18.93;100.00
35291;BME280;21411;50.024;19.220;2022-08-21T00:39:54;98411.41;;;18.93;100.00
35291;BME280;21411;50.024;19.220;2022-08-21T00:42:21;98408.38;;;18.93;100.00
35291;BME280;21411;50.024;19.220;2022-08-21T00:44:49;98403.86;;;18.93;100.00
35291;BME280;21411;50.024;19.220;2022-08-21T00:47:18;98391.07;;;18.92;100.00
35291;BME280;21411;50.024;19.220;2022-08-21T00:49:45;98382.13;;;18.91;100.00
35291;BME280;21411;50.024;19.220;2022-08-21T00:52:18;98377.51;;;18.91;100.00
35291;BME280;21411;50.024;19.220;2022-08-21T00:54:46;98377.57;;;18.90;100.00
35291;BME280;21411;50.024;19.220;2022-08-21T00:57:21;98378.03;;;18.91;100.00
35291;BME280;21411;50.024;19.220;2022-08-21T00:59:51;98369.98;;;18.91;100.00
35291;BME280;21411;50.024;19.220;2022-08-21T01:02:19;98370.66;;;18.91;100.00
35291;BME280;21411;50.024;19.220;2022-08-21T01:04:47;98370.34;;;18.90;100.00
35291;BME280;21411;50.024;19.220;2022-08-21T01:07:15;98375.30;;;18.89;100.00
35291;BME280;21411;50.024;19.220;2022-08-21T01:09:43;98377.59;;;18.90;100.00
35291;BME280;21411;50.024;19.220;2022-08-21T01:12:12;98375.89;;;18.91;100.00
35291;BME280;21411;50.024;19.220;2022-08-21T01:14:40;98370.51;;;18.90;100.00
35291;BME280;21411;50.024;19.220;2022-08-21T01:17:10;98367.13;;;18.90;100.00
35291;BME280;21411;50.024;19.220;2022-08-21T01:19:38;98356.20;;;18.90;100.00
35291;BME280;21411;50.024;19.220;2022-08-21T01:22:05;98350.40;;;18.90;100.00
35291;BME280;21411;50.024;19.220;2022-08-21T01:24:31;98353.33;;;18.90;100.00
35291;BME280;21411;50.024;19.220;2022-08-21T01:26:59;98355.11;;;18.90;100.00
35291;BME280;21411;50.024;19.220;2022-08-21T01:29:56;98348.77;;;18.90;100.00
35291;BME280;21411;50.024;19.220;2022-08-21T01:32:24;98338.88;;;18.90;100.00
35291;BME280;21411;50.024;19.220;2022-08-21T01:34:52;98326.36;;;18.89;100.00
35291;BME280;21411;50.024;19.220;2022-08-21T01:37:21;98317.27;;;18.87;100.00
35291;BME280;21411;50.024;19.220;2022-08-21T01:39:48;98312.95;;;18.85;100.00
35291;BME280;21411;50.024;19.220;2022-08-21T01:42:15;98306.09;;;18.84;100.00
35291;BME280;21411;50.024;19.220;2022-08-21T01:44:42;98304.88;;;18.82;100.00
35291;BME280;21411;50.024;19.220;2022-08-21T01:47:12;98313.92;;;18.80;100.00
35291;BME280;21411;50.024;19.220;2022-08-21T01:49:40;98322.04;;;18.78;100.00
35291;BME280;21411;50.024;19.220;2022-08-21T01:52:07;98328.59;;;18.77;100.00
35291;BME280;21411;50.024;19.220;2022-08-21T01:54:34;98336.00;;;18.79;100.00
35291;BME280;21411;50.024;19.220;2022-08-21T01:57:01;98339.81;;;18.80;100.00
35291;BME280;21411;50.024;19.220;2022-08-21T01:59:28;98333.66;;;18.82;100.00
35291;BME280;21411;50.024;19.220;2022-08-21T02:01:55;98324.08;;;18.83;100.00
35291;BME280;21411;50.024;19.220;2022-08-21T02:04:21;98314.39;;;18.85;100.00
35291;BME280;21411;50.024;19.220;2022-08-21T02:06:49;98314.09;;;18.86;100.00
35291;BME280;21411;50.024;19.220;2022-08-21T02:09:16;98311.35;;;18.89;100.00
35291;BME280;21411;50.024;19.220;2022-08-21T02:11:43;98302.13;;;18.90;100.00
35291;BME280;21411;50.024;19.220;2022-08-21T02:14:11;98302.09;;;18.92;100.00
35291;BME280;21411;50.024;19.220;2022-08-21T02:16:41;98301.39;;;18.94;100.00
35291;BME280;21411;50.024;19.220;2022-08-21T02:19:09;98294.35;;;18.95;100.00
35291;BME280;21411;50.024;19.220;2022-08-21T02:21:36;98293.10;;;18.97;100.00
35291;BME280;21411;50.024;19.220;2022-08-21T02:24:03;98290.25;;;18.98;100.00
35291;BME280;21411;50.024;19.220;2022-08-21T02:26:29;98286.76;;;18.99;100.00
35291;BME280;21411;50.024;19.220;2022-08-21T02:28:56;98286.02;;;18.99;100.00
35291;BME280;21411;50.024;19.220;2022-08-21T02:31:23;98284.52;;;19.00;100.00
35291;BME280;21411;50.024;19.220;2022-08-21T02:33:50;98284.37;;;19.01;100.00
35291;BME280;21411;50.024;19.220;2022-08-21T02:36:18;98280.00;;;19.01;100.00
35291;BME280;21411;50.024;19.220;2022-08-21T02:38:44;98284.83;;;19.02;100.00
35291;BME280;21411;50.024;19.220;2022-08-21T02:41:14;98286.24;;;19.02;100.00
35291;BME280;21411;50.024;19.220;2022-08-21T02:43:42;98284.04;;;19.02;100.00
35291;BME280;21411;50.024;19.220;2022-08-21T02:46:10;98286.09;;;19.03;100.00
35291;BME280;21411;50.024;19.220;2022-08-21T02:48:39;98283.86;;;19.03;100.00
35291;BME280;21411;50.024;19.220;2022-08-21T02:51:15;98278.05;;;19.04;100.00
35291;BME280;21411;50.024;19.220;2022-08-21T02:53:45;98276.73;;;19.06;100.00
35291;BME280;21411;50.024;19.220;2022-08-21T02:56:14;98277.70;;;19.09;100.00
35291;BME280;21411;50.024;19.220;2022-08-21T02:58:48;98277.52;;;19.11;100.00
35291;BME280;21411;50.024;19.220;2022-08-21T03:01:18;98281.52;;;19.10;100.00
35291;BME280;21411;50.024;19.220;2022-08-21T03:03:47;98287.63;;;19.11;100.00
35291;BME280;21411;50.024;19.220;2022-08-21T03:06:17;98293.29;;;19.11;100.00
35291;BME280;21411;50.024;19.220;2022-08-21T03:08:45;98298.60;;;19.12;100.00
35291;BME280;21411;50.024;19.220;2022-08-21T03:11:12;98304.49;;;19.12;100.00
35291;BME280;21411;50.024;19.220;2022-08-21T03:13:39;98308.82;;;19.12;100.00
35291;BME280;21411;50.024;19.220;2022-08-21T03:16:06;98308.78;;;19.13;100.00
35291;BME280;21411;50.024;19.220;2022-08-21T03:18:33;98308.00;;;19.13;100.00
35291;BME280;21411;50.024;19.220;2022-08-21T03:21:00;98314.25;;;19.14;100.00
35291;BME280;21411;50.024;19.220;2022-08-21T03:23:26;98322.63;;;19.15;100.00
35291;BME280;21411;50.024;19.220;2022-08-21T03:25:53;98323.20;;;19.14;100.00
35291;BME280;21411;50.024;19.220;2022-08-21T03:28:21;98326.65;;;19.14;100.00
35291;BME280;21411;50.024;19.220;2022-08-21T03:30:50;98324.09;;;19.14;100.00
35291;BME280;21411;50.024;19.220;2022-08-21T03:33:18;98320.98;;;19.15;100.00
35291;BME280;21411;50.024;19.220;2022-08-21T03:35:48;98319.37;;;19.16;100.00
35291;BME280;21411;50.024;19.220;2022-08-21T03:38:16;98318.28;;;19.16;100.00
35291;BME280;21411;50.024;19.220;2022-08-21T03:40:43;98327.17;;;19.17;100.00
35291;BME280;21411;50.024;19.220;2022-08-21T03:43:10;98330.67;;;19.18;100.00
35291;BME280;21411;50.024;19.220;2022-08-21T03:45:37;98334.42;;;19.18;100.00
35291;BME280;21411;50.024;19.220;2022-08-21T03:48:05;98334.39;;;19.19;100.00
35291;BME280;21411;50.024;19.220;2022-08-21T03:50:36;98333.44;;;19.19;100.00
35291;BME280;21411;50.024;19.220;2022-08-21T03:53:05;98335.36;;;19.19;100.00
35291;BME280;21411;50.024;19.220;2022-08-21T03:55:32;98332.16;;;19.19;100.00
35291;BME280;21411;50.024;19.220;2022-08-21T03:57:58;98334.76;;;19.20;100.00
35291;BME280;21411;50.024;19.220;2022-08-21T04:00:25;98335.06;;;19.21;100.00
35291;BME280;21411;50.024;19.220;2022-08-21T04:02:52;98338.90;;;19.22;100.00
35291;BME280;21411;50.024;19.220;2022-08-21T04:05:20;98333.20;;;19.23;100.00
35291;BME280;21411;50.024;19.220;2022-08-21T04:08:01;98335.92;;;19.24;100.00
35291;BME280;21411;50.024;19.220;2022-08-21T04:10:31;98337.08;;;19.25;100.00
35291;BME280;21411;50.024;19.220;2022-08-21T04:12:59;98336.33;;;19.27;100.00
35291;BME280;21411;50.024;19.220;2022-08-21T04:15:26;98340.05;;;19.29;100.00
35291;BME280;21411;50.024;19.220;2022-08-21T04:17:53;98336.17;;;19.30;100.00
35291;BME280;21411;50.024;19.220;2022-08-21T04:20:21;98335.97;;;19.32;100.00
35291;BME280;21411;50.024;19.220;2022-08-21T04:22:48;98339.71;;;19.34;100.00
35291;BME280;21411;50.024;19.220;2022-08-21T04:25:17;98339.88;;;19.34;100.00
35291;BME280;21411;50.024;19.220;2022-08-21T04:27:45;98339.26;;;19.35;100.00
35291;BME280;21411;50.024;19.220;2022-08-21T04:30:13;98334.90;;;19.35;100.00
35291;BME280;21411;50.024;19.220;2022-08-21T04:32:48;98329.77;;;19.36;100.00
35291;BME280;21411;50.024;19.220;2022-08-21T04:35:21;98329.46;;;19.37;100.00
35291;BME280;21411;50.024;19.220;2022-08-21T04:37:49;98324.32;;;19.37;100.00
35291;BME280;21411;50.024;19.220;2022-08-21T04:40:18;98325.08;;;19.38;100.00
35291;BME280;21411;50.024;19.220;2022-08-21T04:42:50;98327.20;;;19.39;100.00
35291;BME280;21411;50.024;19.220;2022-08-21T04:45:27;98328.67;;;19.41;100.00
35291;BME280;21411;50.024;19.220;2022-08-21T04:47:56;98328.56;;;19.43;100.00
35291;BME280;21411;50.024;19.220;2022-08-21T04:53:15;98327.61;;;19.47;100.00
35291;BME280;21411;50.024;19.220;2022-08-21T04:55:43;98323.98;;;19.47;100.00
35291;BME280;21411;50.024;19.220;2022-08-21T04:58:13;98320.99;;;19.49;100.00
35291;BME280;21411;50.024;19.220;2022-08-21T05:00:41;98319.13;;;19.53;100.00
35291;BME280;21411;50.024;19.220;2022-08-21T05:03:09;98321.40;;;19.58;100.00
35291;BME280;21411;50.024;19.220;2022-08-21T05:05:36;98322.80;;;19.62;100.00
35291;BME280;21411;50.024;19.220;2022-08-21T05:08:03;98323.64;;;19.66;100.00
35291;BME280;21411;50.024;19.220;2022-08-21T05:10:31;98326.97;;;19.69;100.00
35291;BME280;21411;50.024;19.220;2022-08-21T05:12:58;98330.39;;;19.76;100.00
35291;BME280;21411;50.024;19.220;2022-08-21T05:15:27;98335.22;;;19.83;100.00
35291;BME280;21411;50.024;19.220;2022-08-21T05:17:53;98342.34;;;19.89;100.00
35291;BME280;21411;50.024;19.220;2022-08-21T05:20:20;98340.77;;;19.95;100.00
35291;BME280;21411;50.024;19.220;2022-08-21T05:22:46;98338.26;;;20.00;100.00
35291;BME280;21411;50.024;19.220;2022-08-21T05:25:13;98335.69;;;20.05;100.00
35291;BME280;21411;50.024;19.220;2022-08-21T05:27:40;98334.09;;;20.12;100.00
35291;BME280;21411;50.024;19.220;2022-08-21T05:30:09;98329.19;;;20.25;100.00
35291;BME280;21411;50.024;19.220;2022-08-21T05:32:36;98331.91;;;20.37;100.00
35291;BME280;21411;50.024;19.220;2022-08-21T05:35:05;98339.33;;;20.48;100.00
35291;BME280;21411;50.024;19.220;2022-08-21T05:37:33;98342.66;;;20.56;100.00
35291;BME280;21411;50.024;19.220;2022-08-21T05:40:00;98342.61;;;20.63;100.00
35291;BME280;21411;50.024;19.220;2022-08-21T05:42:28;98341.80;;;20.71;100.00
35291;BME280;21411;50.024;19.220;2022-08-21T05:44:55;98339.48;;;20.80;100.00
35291;BME280;21411;50.024;19.220;2022-08-21T05:47:21;98344.53;;;20.93;100.00
35291;BME280;21411;50.024;19.220;2022-08-21T05:49:48;98344.45;;;21.00;100.00
35291;BME280;21411;50.024;19.220;2022-08-21T05:52:19;98346.34;;;21.05;100.00
35291;BME280;21411;50.024;19.220;2022-08-21T05:54:46;98344.74;;;21.08;100.00
35291;BME280;21411;50.024;19.220;2022-08-21T05:57:13;98347.36;;;21.10;100.00
35291;BME280;21411;50.024;19.220;2022-08-21T05:59:39;98350.69;;;21.10;100.00
35291;BME280;21411;50.024;19.220;2022-08-21T06:02:06;98352.77;;;21.08;100.00
35291;BME280;21411;50.024;19.220;2022-08-21T06:04:38;98355.52;;;21.04;100.00
35291;BME280;21411;50.024;19.220;2022-08-21T06:07:06;98360.67;;;21.00;100.00
35291;BME280;21411;50.024;19.220;2022-08-21T06:09:32;98359.73;;;20.96;100.00
35291;BME280;21411;50.024;19.220;2022-08-21T06:12:06;98361.10;;;20.95;100.00
35291;BME280;21411;50.024;19.220;2022-08-21T06:14:35;98364.02;;;20.95;100.00
35291;BME280;21411;50.024;19.220;2022-08-21T06:17:12;98361.75;;;20.94;100.00
35291;BME280;21411;50.024;19.220;2022-08-21T06:19:40;98362.71;;;20.97;100.00
35291;BME280;21411;50.024;19.220;2022-08-21T06:22:07;98365.73;;;20.96;100.00
35291;BME280;21411;50.024;19.220;2022-08-21T06:24:34;98364.72;;;20.92;100.00
35291;BME280;21411;50.024;19.220;2022-08-21T06:27:05;98369.77;;;20.92;100.00
35291;BME280;21411;50.024;19.220;2022-08-21T06:29:32;98366.97;;;20.94;100.00
35291;BME280;21411;50.024;19.220;2022-08-21T06:31:59;98370.35;;;20.98;100.00
35291;BME280;21411;50.024;19.220;2022-08-21T06:34:26;98369.01;;;21.00;100.00
35291;BME280;21411;50.024;19.220;2022-08-21T06:36:53;98367.60;;;20.98;100.00
35291;BME280;21411;50.024;19.220;2022-08-21T06:39:20;98369.05;;;20.95;100.00
35291;BME280;21411;50.024;19.220;2022-08-21T06:41:47;98374.23;;;20.96;100.00
35291;BME280;21411;50.024;19.220;2022-08-21T06:44:16;98375.67;;;21.00;100.00
35291;BME280;21411;50.024;19.220;2022-08-21T06:46:44;98375.08;;;21.07;100.00
35291;BME280;21411;50.024;19.220;2022-08-21T06:49:10;98376.10;;;21.15;100.00
35291;BME280;21411;50.024;19.220;2022-08-21T06:51:37;98375.86;;;21.18;100.00
35291;BME280;21411;50.024;19.220;2022-08-21T06:54:04;98379.02;;;21.22;100.00
35291;BME280;21411;50.024;19.220;2022-08-21T06:56:30;98380.30;;;21.28;100.00
35291;BME280;21411;50.024;19.220;2022-08-21T06:58:57;98383.80;;;21.36;100.00
35291;BME280;21411;50.024;19.220;2022-08-21T07:01:26;98384.42;;;21.48;100.00
35291;BME280;21411;50.024;19.220;2022-08-21T07:03:53;98384.02;;;21.64;100.00
35291;BME280;21411;50.024;19.220;2022-08-21T07:06:20;98383.41;;;21.79;100.00
35291;BME280;21411;50.024;19.220;2022-08-21T07:08:47;98380.94;;;21.92;100.00
35291;BME280;21411;50.024;19.220;2022-08-21T07:11:23;98380.23;;;22.10;100.00
35291;BME280;21411;50.024;19.220;2022-08-21T07:13:51;98382.97;;;22.28;100.00
35291;BME280;21411;50.024;19.220;2022-08-21T07:16:21;98380.93;;;22.33;100.00
35291;BME280;21411;50.024;19.220;2022-08-21T07:18:49;98379.36;;;22.40;100.00
35291;BME280;21411;50.024;19.220;2022-08-21T07:21:15;98376.42;;;22.59;100.00
35291;BME280;21411;50.024;19.220;2022-08-21T07:23:49;98374.74;;;22.78;100.00
35291;BME280;21411;50.024;19.220;2022-08-21T07:26:18;98374.11;;;22.82;100.00
35291;BME280;21411;50.024;19.220;2022-08-21T07:28:48;98379.64;;;22.72;100.00
35291;BME280;21411;50.024;19.220;2022-08-21T07:31:17;98387.48;;;22.49;100.00
35291;BME280;21411;50.024;19.220;2022-08-21T07:33:44;98392.92;;;22.12;100.00
35291;BME280;21411;50.024;19.220;2022-08-21T07:36:12;98397.61;;;21.74;100.00
35291;BME280;21411;50.024;19.220;2022-08-21T07:38:39;98400.63;;;21.45;100.00
35291;BME280;21411;50.024;19.220;2022-08-21T07:41:15;98402.16;;;21.17;100.00
35291;BME280;21411;50.024;19.220;2022-08-21T07:43:42;98406.22;;;20.94;100.00
35291;BME280;21411;50.024;19.220;2022-08-21T07:46:10;98403.58;;;20.78;100.00
35291;BME280;21411;50.024;19.220;2022-08-21T07:48:37;98403.19;;;20.68;100.00
35291;BME280;21411;50.024;19.220;2022-08-21T07:51:10;98401.77;;;20.60;100.00
35291;BME280;21411;50.024;19.220;2022-08-21T07:53:38;98402.23;;;20.61;100.00
35291;BME280;21411;50.024;19.220;2022-08-21T07:56:06;98400.30;;;20.60;100.00
35291;BME280;21411;50.024;19.220;2022-08-21T07:58:34;98398.65;;;20.57;100.00
35291;BME280;21411;50.024;19.220;2022-08-21T08:01:01;98400.34;;;20.55;100.00
35291;BME280;21411;50.024;19.220;2022-08-21T08:03:27;98400.95;;;20.56;100.00
35291;BME280;21411;50.024;19.220;2022-08-21T08:05:56;98400.71;;;20.60;100.00
35291;BME280;21411;50.024;19.220;2022-08-21T08:08:23;98406.15;;;20.61;100.00
35291;BME280;21411;50.024;19.220;2022-08-21T08:10:51;98402.27;;;20.57;100.00
35291;BME280;21411;50.024;19.220;2022-08-21T08:13:19;98406.64;;;20.51;100.00
35291;BME280;21411;50.024;19.220;2022-08-21T08:15:46;98401.93;;;20.52;100.00
35291;BME280;21411;50.024;19.220;2022-08-21T08:18:12;98403.05;;;20.60;100.00
35291;BME280;21411;50.024;19.220;2022-08-21T08:20:40;98404.34;;;20.63;100.00
35291;BME280;21411;50.024;19.220;2022-08-21T08:23:10;98404.05;;;20.57;100.00
35291;BME280;21411;50.024;19.220;2022-08-21T08:25:37;98407.38;;;20.60;100.00
35291;BME280;21411;50.024;19.220;2022-08-21T08:28:05;98402.51;;;20.60;100.00
35291;BME280;21411;50.024;19.220;2022-08-21T08:30:32;98404.22;;;20.57;100.00
35291;BME280;21411;50.024;19.220;2022-08-21T08:32:59;98408.29;;;20.57;100.00
35291;BME280;21411;50.024;19.220;2022-08-21T08:35:26;98403.80;;;20.55;100.00
35291;BME280;21411;50.024;19.220;2022-08-21T08:37:56;98403.70;;;20.54;100.00
35291;BME280;21411;50.024;19.220;2022-08-21T08:40:31;98400.05;;;20.58;100.00
35291;BME280;21411;50.024;19.220;2022-08-21T08:42:59;98395.39;;;20.68;100.00
35291;BME280;21411;50.024;19.220;2022-08-21T08:45:26;98395.17;;;20.79;100.00
35291;BME280;21411;50.024;19.220;2022-08-21T08:48:03;98396.92;;;20.95;100.00
35291;BME280;21411;50.024;19.220;2022-08-21T08:50:45;98390.73;;;21.15;100.00
35291;BME280;21411;50.024;19.220;2022-08-21T08:53:33;98392.35;;;21.37;100.00
35291;BME280;21411;50.024;19.220;2022-08-21T08:56:01;98394.70;;;21.55;100.00
35291;BME280;21411;50.024;19.220;2022-08-21T08:58:34;98399.92;;;21.64;100.00
35291;BME280;21411;50.024;19.220;2022-08-21T09:01:06;98401.83;;;21.66;100.00
35291;BME280;21411;50.024;19.220;2022-08-21T09:03:39;98407.27;;;21.68;100.00
35291;BME280;21411;50.024;19.220;2022-08-21T09:06:34;98410.35;;;21.69;100.00
35291;BME280;21411;50.024;19.220;2022-08-21T09:14:16;98418.16;;;21.57;100.00
35291;BME280;21411;50.024;19.220;2022-08-21T09:23:32;98426.21;;;21.40;100.00
35291;BME280;21411;50.024;19.220;2022-08-21T09:26:15;98425.66;;;21.44;100.00
35291;BME280;21411;50.024;19.220;2022-08-21T09:28:42;98425.48;;;21.46;100.00
35291;BME280;21411;50.024;19.220;2022-08-21T09:31:24;98425.26;;;21.43;100.00
35291;BME280;21411;50.024;19.220;2022-08-21T09:34:04;98426.84;;;21.42;100.00
35291;BME280;21411;50.024;19.220;2022-08-21T09:36:44;98424.00;;;21.35;100.00
35291;BME280;21411;50.024;19.220;2022-08-21T09:39:13;98429.06;;;21.23;100.00
35291;BME280;21411;50.024;19.220;2022-08-21T09:41:40;98427.44;;;21.13;100.00
35291;BME280;21411;50.024;19.220;2022-08-21T09:44:08;98429.88;;;21.09;100.00
35291;BME280;21411;50.024;19.220;2022-08-21T09:46:35;98427.83;;;21.03;100.00
35291;BME280;21411;50.024;19.220;2022-08-21T09:49:03;98424.92;;;20.99;100.00
35291;BME280;21411;50.024;19.220;2022-08-21T09:51:34;98423.89;;;20.97;100.00
35291;BME280;21411;50.024;19.220;2022-08-21T09:56:37;98426.29;;;21.01;100.00
35291;BME280;21411;50.024;19.220;2022-08-21T10:01:53;98426.46;;;20.97;100.00
35291;BME280;21411;50.024;19.220;2022-08-21T10:04:36;98428.35;;;20.95;100.00
35291;BME280;21411;50.024;19.220;2022-08-21T10:07:10;98426.86;;;20.98;100.00
35291;BME280;21411;50.024;19.220;2022-08-21T10:09:38;98429.73;;;20.95;100.00
35291;BME280;21411;50.024;19.220;2022-08-21T10:12:23;98428.83;;;20.91;100.00
35291;BME280;21411;50.024;19.220;2022-08-21T10:17:51;98433.96;;;20.93;100.00
35291;BME280;21411;50.024;19.220;2022-08-21T10:20:23;98435.17;;;20.94;100.00
35291;BME280;21411;50.024;19.220;2022-08-21T10:25:39;98430.80;;;21.00;100.00
35291;BME280;21411;50.024;19.220;2022-08-21T10:28:22;98430.73;;;21.02;100.00
35291;BME280;21411;50.024;19.220;2022-08-21T10:30:56;98430.38;;;21.03;100.00
35291;BME280;21411;50.024;19.220;2022-08-21T10:33:59;98429.45;;;21.11;100.00
35291;BME280;21411;50.024;19.220;2022-08-21T10:39:04;98436.02;;;21.20;100.00
35291;BME280;21411;50.024;19.220;2022-08-21T10:44:45;98434.73;;;21.15;100.00
35291;BME280;21411;50.024;19.220;2022-08-21T10:47:25;98436.07;;;21.13;100.00
35291;BME280;21411;50.024;19.220;2022-08-21T10:59:00;98436.06;;;21.10;100.00
35291;BME280;21411;50.024;19.220;2022-08-21T11:02:09;98435.05;;;21.07;100.00
35291;BME280;21411;50.024;19.220;2022-08-21T11:05:04;98435.48;;;21.11;100.00
35291;BME280;21411;50.024;19.220;2022-08-21T11:07:48;98435.85;;;21.23;100.00
35291;BME280;21411;50.024;19.220;2022-08-21T11:10:28;98426.92;;;21.34;100.00
35291;BME280;21411;50.024;19.220;2022-08-21T11:13:04;98430.47;;;21.37;100.00
35291;BME280;21411;50.024;19.220;2022-08-21T11:15:39;98430.24;;;21.44;100.00
35291;BME280;21411;50.024;19.220;2022-08-21T11:18:29;98431.95;;;21.57;100.00
35291;BME280;21411;50.024;19.220;2022-08-21T11:23:57;98435.98;;;21.75;100.00
35291;BME280;21411;50.024;19.220;2022-08-21T11:29:13;98437.36;;;21.88;100.00
35291;BME280;21411;50.024;19.220;2022-08-21T11:37:28;98436.98;;;21.64;100.00
35291;BME280;21411;50.024;19.220;2022-08-21T11:42:38;98429.88;;;21.51;100.00
35291;BME280;21411;50.024;19.220;2022-08-21T11:45:14;98427.84;;;21.62;100.00
35291;BME280;21411;50.024;19.220;2022-08-21T11:48:08;98424.96;;;21.81;100.00
35291;BME280;21411;50.024;19.220;2022-08-21T11:50:40;98426.45;;;21.96;100.00
35291;BME280;21411;50.024;19.220;2022-08-21T11:53:19;98426.48;;;22.08;100.00
35291;BME280;21411;50.024;19.220;2022-08-21T11:56:03;98426.93;;;22.24;100.00
35291;BME280;21411;50.024;19.220;2022-08-21T11:58:39;98426.80;;;22.34;100.00
35291;BME280;21411;50.024;19.220;2022-08-21T12:01:19;98426.34;;;22.42;100.00
35291;BME280;21411;50.024;19.220;2022-08-21T12:04:08;98422.89;;;22.51;100.00
35291;BME280;21411;50.024;19.220;2022-08-21T12:06:39;98420.02;;;22.42;100.00
35291;BME280;21411;50.024;19.220;2022-08-21T12:17:07;98425.27;;;22.59;100.00
35291;BME280;21411;50.024;19.220;2022-08-21T12:19:35;98424.18;;;22.72;100.00
35291;BME280;21411;50.024;19.220;2022-08-21T12:24:41;98421.89;;;22.90;100.00
35291;BME280;21411;50.024;19.220;2022-08-21T12:27:30;98427.91;;;23.03;100.00
35291;BME280;21411;50.024;19.220;2022-08-21T12:30:41;98425.32;;;23.03;100.00
35291;BME280;21411;50.024;19.220;2022-08-21T12:35:49;98422.39;;;22.65;100.00
35291;BME280;21411;50.024;19.220;2022-08-21T12:38:21;98421.41;;;22.49;100.00
35291;BME280;21411;50.024;19.220;2022-08-21T12:41:05;98422.89;;;22.32;100.00
35291;BME280;21411;50.024;19.220;2022-08-21T12:43:37;98418.61;;;22.17;100.00
35291;BME280;21411;50.024;19.220;2022-08-21T12:46:06;98416.39;;;22.12;100.00
35291;BME280;21411;50.024;19.220;2022-08-21T12:48:47;98419.34;;;22.13;100.00
35291;BME280;21411;50.024;19.220;2022-08-21T12:51:18;98422.94;;;22.12;100.00
35291;BME280;21411;50.024;19.220;2022-08-21T12:53:53;98419.59;;;22.16;100.00
35291;BME280;21411;50.024;19.220;2022-08-21T12:56:23;98421.06;;;22.19;100.00
35291;BME280;21411;50.024;19.220;2022-08-21T12:58:51;98417.25;;;22.21;100.00
35291;BME280;21411;50.024;19.220;2022-08-21T13:04:04;98415.33;;;22.24;100.00
35291;BME280;21411;50.024;19.220;2022-08-21T13:06:39;98416.85;;;22.25;100.00
35291;BME280;21411;50.024;19.220;2022-08-21T13:09:11;98413.61;;;22.09;100.00
35291;BME280;21411;50.024;19.220;2022-08-21T13:11:41;98424.66;;;21.90;100.00
35291;BME280;21411;50.024;19.220;2022-08-21T13:14:13;98420.20;;;21.66;100.00
35291;BME280;21411;50.024;19.220;2022-08-21T13:16:41;98416.94;;;21.46;100.00
35291;BME280;21411;50.024;19.220;2022-08-21T13:19:11;98419.56;;;21.26;100.00
35291;BME280;21411;50.024;19.220;2022-08-21T13:21:44;98426.30;;;21.01;100.00
35291;BME280;21411;50.024;19.220;2022-08-21T13:24:16;98428.85;;;20.83;100.00
35291;BME280;21411;50.024;19.220;2022-08-21T13:26:44;98433.64;;;20.70;100.00
35291;BME280;21411;50.024;19.220;2022-08-21T13:29:13;98435.31;;;20.59;100.00
35291;BME280;21411;50.024;19.220;2022-08-21T13:31:51;98439.55;;;20.49;100.00
35291;BME280;21411;50.024;19.220;2022-08-21T13:34:26;98442.98;;;20.39;100.00
35291;BME280;21411;50.024;19.220;2022-08-21T13:36:58;98450.02;;;20.27;100.00
35291;BME280;21411;50.024;19.220;2022-08-21T13:39:26;98446.67;;;20.15;100.00
35291;BME280;21411;50.024;19.220;2022-08-21T13:41:56;98454.02;;;20.03;100.00
35291;BME280;21411;50.024;19.220;2022-08-21T13:44:45;98458.49;;;19.87;100.00
35291;BME280;21411;50.024;19.220;2022-08-21T13:47:12;98465.82;;;19.74;100.00
35291;BME280;21411;50.024;19.220;2022-08-21T13:49:44;98467.77;;;19.55;100.00
35291;BME280;21411;50.024;19.220;2022-08-21T13:52:29;98465.98;;;19.37;100.00
35291;BME280;21411;50.024;19.220;2022-08-21T13:55:12;98469.42;;;19.24;100.00
35291;BME280;21411;50.024;19.220;2022-08-21T13:57:39;98472.04;;;19.10;100.00
35291;BME280;21411;50.024;19.220;2022-08-21T14:02:46;98484.05;;;18.86;100.00
35291;BME280;21411;50.024;19.220;2022-08-21T14:05:20;98484.52;;;18.78;100.00
35291;BME280;21411;50.024;19.220;2022-08-21T14:07:50;98484.58;;;18.73;100.00
35291;BME280;21411;50.024;19.220;2022-08-21T14:10:23;98488.78;;;18.65;100.00